Time,TemperatureF,DewpointF,PressureIn,WindDirection,WindDirectionDegrees,WindSpeedMPH,WindSpeedGustMPH,Humidity,HourlyPrecipIn,Conditions,Clouds,dailyrainin,SoftwareType,DateUTC
2016-12-10 00:02:00,32.9,32.4,29.76,East,90,0.0,0.0,98,0.00,,---,0.00,VWS V15.00,2016-12-10 08:02:00,
2016-12-10 00:07:00,33.1,32.6,29.76,East,90,0.0,0.0,98,0.00,,---,0.00,VWS V15.00,2016-12-10 08:07:00,
2016-12-10 00:13:00,33.1,32.6,29.76,NE,45,0.0,0.0,98,0.00,,---,0.00,VWS V15.00,2016-12-10 08:13:00,
2016-12-10 00:18:00,33.1,32.6,29.76,NE,45,0.0,0.0,98,0.00,,---,0.00,VWS V15.00,2016-12-10 08:18:00,
2016-12-10 00:23:00,33.1,32.6,29.74,North,0,0.0,0.0,98,0.00,,---,0.00,VWS V15.00,2016-12-10 08:23:00,
2016-12-10 00:28:00,33.1,32.6,29.74,NNE,22,0.0,0.0,98,0.00,,---,0.00,VWS V15.00,2016-12-10 08:28:00,
2016-12-10 00:35:00,33.1,32.6,29.74,East,90,0.0,0.0,98,0.00,,---,0.00,VWS V15.00,2016-12-10 08:35:00,
2016-12-10 00:41:00,33.1,32.6,29.74,East,90,0.0,0.0,98,0.00,,---,0.00,VWS V15.00,2016-12-10 08:41:00,
2016-12-10 00:47:00,33.1,32.6,29.74,ESE,112,0.0,0.0,98,0.00,,---,0.00,VWS V15.00,2016-12-10 08:47:00,
2016-12-10 00:53:00,33.1,32.6,29.74,NE,45,0.0,0.0,98,0.00,,---,0.00,VWS V15.00,2016-12-10 08:53:00,
2016-12-10 00:59:00,33.1,32.6,29.74,ESE,112,0.0,0.0,98,0.00,,---,0.00,VWS V15.00,2016-12-10 08:59:00,
2016-12-10 01:04:00,33.1,32.6,29.74,ESE,112,0.0,0.0,98,0.00,,---,0.00,VWS V15.00,2016-12-10 09:04:00,
2016-12-10 01:10:00,33.1,32.6,29.74,ESE,112,0.0,0.0,98,0.00,,---,0.00,VWS V15.00,2016-12-10 09:10:00,
2016-12-10 01:15:00,33.3,32.8,29.74,ESE,112,0.0,0.0,98,0.00,,---,0.00,VWS V15.00,2016-12-10 09:15:00,
2016-12-10 01:21:00,33.3,32.8,29.74,ESE,112,0.0,0.0,98,0.00,,---,0.00,VWS V15.00,2016-12-10 09:21:00,
2016-12-10 01:26:00,33.3,32.8,29.74,ESE,112,0.0,0.0,98,0.00,,---,0.00,VWS V15.00,2016-12-10 09:26:00,
2016-12-10 01:32:00,33.1,32.6,29.74,ESE,112,0.0,0.0,98,0.00,,---,0.00,VWS V15.00,2016-12-10 09:32:00,
2016-12-10 01:38:00,33.1,32.6,29.74,North,0,0.0,0.0,98,0.00,,---,0.00,VWS V15.00,2016-12-10 09:38:00,
2016-12-10 01:44:00,33.1,32.6,29.74,NE,45,0.0,0.0,98,0.00,,---,0.00,VWS V15.00,2016-12-10 09:44:00,
2016-12-10 01:49:00,33.3,32.8,29.76,East,90,0.0,0.0,98,0.00,,---,0.00,VWS V15.00,2016-12-10 09:49:00,
2016-12-10 01:55:00,33.3,32.8,29.76,East,90,0.0,0.0,98,0.00,,---,0.00,VWS V15.00,2016-12-10 09:55:00,
2016-12-10 02:00:00,33.3,32.8,29.76,East,90,0.0,0.0,98,0.00,,---,0.00,VWS V15.00,2016-12-10 10:00:00,
2016-12-10 02:06:00,33.3,32.8,29.74,East,90,0.0,0.0,98,0.00,,---,0.00,VWS V15.00,2016-12-10 10:06:00,
2016-12-10 02:11:00,33.3,32.8,29.74,East,90,0.0,0.0,98,0.00,,---,0.00,VWS V15.00,2016-12-10 10:11:00,
2016-12-10 02:17:00,33.4,32.9,29.74,NE,45,0.0,0.0,98,0.00,,---,0.00,VWS V15.00,2016-12-10 10:17:00,
2016-12-10 02:23:00,33.4,32.9,29.74,NE,45,0.0,0.0,98,0.00,,---,0.00,VWS V15.00,2016-12-10 10:23:00,
2016-12-10 02:28:00,33.6,33.1,29.74,NE,45,0.0,0.0,98,0.00,,---,0.00,VWS V15.00,2016-12-10 10:28:00,
2016-12-10 02:34:00,33.6,33.1,29.74,East,90,0.0,0.0,98,0.00,,---,0.00,VWS V15.00,2016-12-10 10:34:00,
2016-12-10 02:40:00,33.8,33.3,29.71,East,90,0.0,0.0,98,0.00,,---,0.00,VWS V15.00,2016-12-10 10:40:00,
2016-12-10 02:45:00,34.0,33.5,29.71,East,90,0.0,0.0,98,0.00,,---,0.00,VWS V15.00,2016-12-10 10:45:00,
2016-12-10 02:50:00,34.0,33.5,29.71,East,90,0.0,0.0,98,0.00,,---,0.00,VWS V15.00,2016-12-10 10:50:00,
2016-12-10 02:55:00,34.0,33.5,29.71,NE,45,0.0,0.0,98,0.00,,---,0.00,VWS V15.00,2016-12-10 10:55:00,
2016-12-10 03:00:00,34.0,33.5,29.71,East,90,0.0,0.0,98,0.00,,---,0.00,VWS V15.00,2016-12-10 11:00:00,
2016-12-10 03:06:00,33.8,33.3,29.71,NE,45,0.0,0.0,98,0.00,,---,0.00,VWS V15.00,2016-12-10 11:06:00,
2016-12-10 03:11:00,34.0,33.5,29.71,NE,45,0.0,0.0,98,0.00,,---,0.00,VWS V15.00,2016-12-10 11:11:00,
2016-12-10 03:16:00,34.0,33.5,29.71,NE,45,0.0,0.0,98,0.00,,---,0.00,VWS V15.00,2016-12-10 11:16:00,
2016-12-10 03:21:00,34.0,33.5,29.74,NE,45,0.0,0.0,98,0.00,,---,0.00,VWS V15.00,2016-12-10 11:21:00,
2016-12-10 03:27:00,34.0,33.5,29.74,NE,45,0.0,0.0,98,0.00,,---,0.00,VWS V15.00,2016-12-10 11:27:00,
2016-12-10 03:32:00,34.0,33.5,29.74,NE,45,0.0,0.0,98,0.00,,---,0.00,VWS V15.00,2016-12-10 11:32:00,
2016-12-10 03:37:00,34.0,33.5,29.71,ESE,112,0.0,0.0,98,0.00,,---,0.00,VWS V15.00,2016-12-10 11:37:00,
2016-12-10 03:42:00,34.0,33.5,29.71,ESE,112,0.0,0.0,98,0.00,,---,0.00,VWS V15.00,2016-12-10 11:42:00,
2016-12-10 03:48:00,34.0,33.5,29.71,ESE,112,0.0,0.0,98,0.00,,---,0.00,VWS V15.00,2016-12-10 11:48:00,
2016-12-10 03:53:00,34.0,33.5,29.74,ESE,112,0.0,0.0,98,0.00,,---,0.00,VWS V15.00,2016-12-10 11:53:00,
2016-12-10 03:58:00,34.2,33.7,29.74,ESE,112,0.0,0.0,98,0.00,,---,0.00,VWS V15.00,2016-12-10 11:58:00,
2016-12-10 04:04:00,34.2,33.7,29.71,ESE,112,0.0,0.0,98,0.00,,---,0.00,VWS V15.00,2016-12-10 12:04:00,
2016-12-10 04:09:00,34.2,33.7,29.71,ESE,112,0.0,0.0,98,0.00,,---,0.00,VWS V15.00,2016-12-10 12:09:00,
2016-12-10 04:14:00,34.2,33.7,29.71,ESE,112,0.0,0.0,98,0.00,,---,0.00,VWS V15.00,2016-12-10 12:14:00,
2016-12-10 04:20:00,34.2,33.7,29.74,East,90,0.0,0.0,98,0.00,,---,0.00,VWS V15.00,2016-12-10 12:20:00,
2016-12-10 04:25:00,34.2,33.7,29.74,NE,45,0.0,0.0,98,0.00,,---,0.00,VWS V15.00,2016-12-10 12:25:00,
2016-12-10 04:30:00,34.2,33.7,29.74,NE,45,0.0,0.0,98,0.00,,---,0.00,VWS V15.00,2016-12-10 12:30:00,
2016-12-10 04:35:00,34.2,33.7,29.74,East,90,0.0,0.0,98,0.00,,---,0.00,VWS V15.00,2016-12-10 12:35:00,
2016-12-10 04:41:00,34.2,33.7,29.74,ESE,112,0.0,0.0,98,0.00,,---,0.00,VWS V15.00,2016-12-10 12:41:00,
2016-12-10 04:47:00,34.2,33.7,29.74,ESE,112,0.0,0.0,98,0.00,,---,0.00,VWS V15.00,2016-12-10 12:47:00,
2016-12-10 04:52:00,34.2,33.7,29.74,ESE,112,0.0,0.0,98,0.00,,---,0.00,VWS V15.00,2016-12-10 12:52:00,
2016-12-10 04:59:00,34.3,33.8,29.74,East,90,0.0,0.0,98,0.00,,---,0.00,VWS V15.00,2016-12-10 12:59:00,
2016-12-10 05:05:00,34.3,33.8,29.74,East,90,0.0,0.0,98,0.00,,---,0.00,VWS V15.00,2016-12-10 13:05:00,
2016-12-10 05:10:00,34.3,33.8,29.74,East,90,0.0,0.0,98,0.00,,---,0.00,VWS V15.00,2016-12-10 13:10:00,
2016-12-10 05:16:00,34.3,33.8,29.74,NE,45,0.0,0.0,98,0.00,,---,0.00,VWS V15.00,2016-12-10 13:16:00,
2016-12-10 05:22:00,34.2,33.7,29.74,NE,45,0.0,0.0,98,0.00,,---,0.00,VWS V15.00,2016-12-10 13:22:00,
2016-12-10 05:28:00,34.2,33.7,29.74,NE,45,0.0,0.0,98,0.00,,---,0.00,VWS V15.00,2016-12-10 13:28:00,
2016-12-10 05:34:00,34.2,33.7,29.74,NE,45,0.0,0.0,98,0.00,,---,0.00,VWS V15.00,2016-12-10 13:34:00,
2016-12-10 05:40:00,34.2,33.7,29.74,NE,45,0.0,0.0,98,0.00,,---,0.00,VWS V15.00,2016-12-10 13:40:00,
2016-12-10 05:46:00,34.2,33.7,29.74,NE,45,0.0,0.0,98,0.00,,---,0.00,VWS V15.00,2016-12-10 13:46:00,
2016-12-10 05:51:00,34.2,33.7,29.74,NE,45,0.0,0.0,98,0.00,,---,0.00,VWS V15.00,2016-12-10 13:51:00,
2016-12-10 05:56:00,34.2,33.7,29.74,ESE,112,0.0,0.0,98,0.00,,---,0.00,VWS V15.00,2016-12-10 13:56:00,
2016-12-10 06:01:00,34.3,33.8,29.74,ESE,112,0.0,0.0,98,0.00,,---,0.00,VWS V15.00,2016-12-10 14:01:00,
2016-12-10 06:06:00,34.3,33.8,29.74,East,90,0.0,0.0,98,0.00,,---,0.00,VWS V15.00,2016-12-10 14:06:00,
2016-12-10 06:12:00,34.3,33.8,29.74,East,90,0.0,0.0,98,0.00,,---,0.00,VWS V15.00,2016-12-10 14:12:00,
2016-12-10 06:18:00,34.2,33.7,29.74,East,90,0.0,0.0,98,0.00,,---,0.00,VWS V15.00,2016-12-10 14:18:00,
2016-12-10 06:24:00,34.3,33.8,29.76,ESE,112,0.0,0.0,98,0.00,,---,0.00,VWS V15.00,2016-12-10 14:24:00,
2016-12-10 06:29:00,34.3,33.8,29.76,NE,45,0.0,0.0,98,0.00,,---,0.00,VWS V15.00,2016-12-10 14:29:00,
2016-12-10 06:35:00,34.3,33.8,29.76,NE,45,0.0,0.0,98,0.00,,---,0.00,VWS V15.00,2016-12-10 14:35:00,
2016-12-10 06:40:00,34.3,33.8,29.76,North,0,0.0,0.0,98,0.00,,---,0.00,VWS V15.00,2016-12-10 14:40:00,
2016-12-10 06:45:00,34.3,33.8,29.76,North,0,0.0,0.0,98,0.00,,---,0.00,VWS V15.00,2016-12-10 14:45:00,
2016-12-10 06:51:00,34.3,33.8,29.76,East,90,0.0,0.0,98,0.00,,---,0.00,VWS V15.00,2016-12-10 14:51:00,
2016-12-10 06:57:00,34.3,33.8,29.76,NE,45,0.0,0.0,98,0.00,,---,0.00,VWS V15.00,2016-12-10 14:57:00,
2016-12-10 07:02:00,34.3,33.8,29.76,NE,45,0.0,0.0,98,0.00,,---,0.00,VWS V15.00,2016-12-10 15:02:00,
2016-12-10 07:08:00,34.3,33.8,29.76,ENE,68,0.0,0.0,98,0.00,,---,0.00,VWS V15.00,2016-12-10 15:08:00,
2016-12-10 07:14:00,34.5,34.0,29.76,South,180,0.0,0.0,98,0.00,,---,0.00,VWS V15.00,2016-12-10 15:14:00,
2016-12-10 07:19:00,34.5,34.0,29.79,SE,135,0.0,0.0,98,0.00,,---,0.00,VWS V15.00,2016-12-10 15:19:00,
2016-12-10 07:24:00,34.7,34.2,29.79,East,90,0.0,0.0,98,0.00,,---,0.00,VWS V15.00,2016-12-10 15:24:00,
2016-12-10 07:29:00,34.7,34.2,29.79,East,90,0.0,0.0,98,0.00,,---,0.00,VWS V15.00,2016-12-10 15:29:00,
2016-12-10 07:35:00,34.7,34.2,29.79,NE,45,0.0,0.0,98,0.00,,---,0.00,VWS V15.00,2016-12-10 15:35:00,
2016-12-10 07:40:00,34.7,34.2,29.79,North,0,0.0,0.0,98,0.00,,---,0.00,VWS V15.00,2016-12-10 15:40:00,
2016-12-10 07:45:00,34.7,34.2,29.79,North,0,0.0,0.0,98,0.00,,---,0.00,VWS V15.00,2016-12-10 15:45:00,
2016-12-10 07:51:00,34.7,34.2,29.82,North,0,0.0,0.0,98,0.00,,---,0.00,VWS V15.00,2016-12-10 15:51:00,
2016-12-10 07:57:00,34.5,34.0,29.82,NE,45,0.0,0.0,98,0.00,,---,0.00,VWS V15.00,2016-12-10 15:57:00,
2016-12-10 08:02:00,34.7,34.2,29.82,East,90,0.0,0.0,98,0.00,,---,0.00,VWS V15.00,2016-12-10 16:02:00,
2016-12-10 08:07:00,34.7,34.2,29.79,SE,135,0.0,0.0,98,0.00,,---,0.00,VWS V15.00,2016-12-10 16:07:00,
2016-12-10 08:12:00,34.7,34.2,29.79,NW,315,0.0,0.0,98,0.00,,---,0.00,VWS V15.00,2016-12-10 16:12:00,
2016-12-10 08:18:00,34.7,34.2,29.79,NW,315,0.0,0.0,98,0.00,,---,0.00,VWS V15.00,2016-12-10 16:18:00,
2016-12-10 08:24:00,34.7,34.2,29.79,NE,45,0.0,0.0,98,0.00,,---,0.00,VWS V15.00,2016-12-10 16:24:00,
2016-12-10 08:29:00,34.7,34.2,29.79,North,0,0.0,0.0,98,0.00,,---,0.00,VWS V15.00,2016-12-10 16:29:00,
2016-12-10 08:35:00,34.9,34.4,29.79,North,0,0.0,0.0,98,0.00,,---,0.00,VWS V15.00,2016-12-10 16:35:00,
2016-12-10 08:40:00,34.9,34.4,29.79,NE,45,0.0,0.0,98,0.00,,---,0.00,VWS V15.00,2016-12-10 16:40:00,
2016-12-10 08:45:00,34.9,34.4,29.79,North,0,0.0,0.0,98,0.04,,---,0.04,VWS V15.00,2016-12-10 16:45:00,
2016-12-10 08:51:00,34.9,34.4,29.79,North,0,0.0,0.0,98,0.04,,---,0.04,VWS V15.00,2016-12-10 16:51:00,
2016-12-10 08:56:00,34.7,34.2,29.79,NNE,22,0.0,0.0,98,0.04,,---,0.04,VWS V15.00,2016-12-10 16:56:00,
2016-12-10 09:01:00,34.7,34.2,29.79,ENE,68,0.0,0.0,98,0.04,,---,0.04,VWS V15.00,2016-12-10 17:01:00,
2016-12-10 09:06:00,34.7,34.2,29.79,East,90,0.0,0.0,98,0.04,,---,0.04,VWS V15.00,2016-12-10 17:06:00,
2016-12-10 09:12:00,34.9,34.4,29.79,NE,45,0.0,0.0,98,0.04,,---,0.04,VWS V15.00,2016-12-10 17:12:00,
2016-12-10 09:17:00,34.9,34.4,29.79,North,0,0.0,0.0,98,0.04,,---,0.04,VWS V15.00,2016-12-10 17:17:00,
2016-12-10 09:22:00,34.9,34.4,29.79,ESE,112,0.0,0.0,98,0.04,,---,0.04,VWS V15.00,2016-12-10 17:22:00,
2016-12-10 09:29:00,34.9,34.4,29.79,East,90,0.0,0.0,98,0.04,,---,0.04,VWS V15.00,2016-12-10 17:29:00,
2016-12-10 09:35:00,35.1,34.5,29.79,SE,135,0.0,0.0,98,0.04,,---,0.04,VWS V15.00,2016-12-10 17:35:00,